Tewkesbury, United Kingdom
Current Conditions -  °F | °C
As of 4:20 PM on Thursday 29 Jan 2015 (Local Time) from EGBJ Reporting Station
Rain Showers Rain Showers  
Wind Chill: 31°   Ceiling: Unl
Heat Index: 37°   Visibility: 6mi
Dew Point: 34°   Wind: 9mph
Humidity: 87%   Direction: 280°W
Pressure: 28.88"   Gusts: NA
Location:  51.99°N, 2.16°W
Report Text: EGBJ 291620Z 28008KT 9999 4000SE VCSH FEW008 SCT014 03/01 Q0978
Loading
Personal Weather Stations






























Interactive Weather Map New forecast layout! Learn more

10-Day Weather Forecast

Advertisements
Track Severe Weather on mobile